createdAt,value
2022-08-07T00:01:12.691Z,0.60
2022-08-07T00:03:49.245Z,0.70
2022-08-07T00:06:15.804Z,0.75
2022-08-07T00:08:44.389Z,1.02
2022-08-07T00:11:11.765Z,0.70
2022-08-07T00:13:47.809Z,0.90
2022-08-07T00:16:17.423Z,0.80
2022-08-07T00:18:48.366Z,1.35
2022-08-07T00:21:57.125Z,1.00
2022-08-07T00:24:01.603Z,0.90
2022-08-07T00:26:49.419Z,0.75
2022-08-07T00:29:15.270Z,0.90
2022-08-07T00:31:42.377Z,0.60
2022-08-07T00:34:09.493Z,0.60
2022-08-07T00:36:42.772Z,0.77
2022-08-07T00:39:16.579Z,0.60
2022-08-07T00:42:01.364Z,0.70
2022-08-07T00:44:31.426Z,0.70
2022-08-07T00:47:00.845Z,0.90
2022-08-07T00:50:20.638Z,0.88
2022-08-07T00:52:17.723Z,0.80
2022-08-07T00:57:22.589Z,0.85
2022-08-07T00:59:49.231Z,0.80
2022-08-07T01:02:28.599Z,0.77
2022-08-07T01:04:58.669Z,1.05
2022-08-07T01:07:28.239Z,1.20
2022-08-07T01:10:06.090Z,0.90
2022-08-07T01:12:38.670Z,0.95
2022-08-07T01:15:07.397Z,1.02
2022-08-07T01:17:39.983Z,0.95
2022-08-07T01:20:10.203Z,1.00
2022-08-07T01:22:46.897Z,1.30
2022-08-07T01:25:54.643Z,1.05
2022-08-07T01:28:15.523Z,1.33
2022-08-07T01:30:44.466Z,0.95
2022-08-07T01:33:22.779Z,1.10
2022-08-07T01:35:54.107Z,0.80
2022-08-07T01:38:32.692Z,0.70
2022-08-07T01:41:07.130Z,1.00
2022-08-07T01:43:38.661Z,0.93
2022-08-07T01:46:08.323Z,0.70
2022-08-07T01:48:46.588Z,0.70
2022-08-07T01:52:02.765Z,0.70
2022-08-07T01:54:13.056Z,0.98
2022-08-07T01:57:34.176Z,0.80
2022-08-07T02:00:12.935Z,0.90
2022-08-07T02:03:18.580Z,0.65
2022-08-07T02:06:02.195Z,0.90
2022-08-07T02:08:40.310Z,0.85
2022-08-07T02:11:10.970Z,0.90
2022-08-07T02:14:02.431Z,0.75
2022-08-07T02:16:33.632Z,0.90
2022-08-07T02:20:05.177Z,1.08
2022-08-07T02:21:58.464Z,1.13
2022-08-07T02:24:29.457Z,1.00
2022-08-07T02:27:01.515Z,1.08
2022-08-07T02:29:30.625Z,1.25
2022-08-07T02:32:00.023Z,1.08
2022-08-07T02:34:28.331Z,1.15
2022-08-07T02:36:58.113Z,1.00
2022-08-07T02:39:43.048Z,1.17
2022-08-07T02:42:18.705Z,1.15
2022-08-07T02:44:50.301Z,1.23
2022-08-07T02:47:23.564Z,1.10
2022-08-07T02:49:58.932Z,1.08
2022-08-07T02:52:37.170Z,1.27
2022-08-07T02:55:27.784Z,1.10
2022-08-07T02:58:04.381Z,0.80
2022-08-07T03:00:34.753Z,0.93
2022-08-07T03:03:06.322Z,0.90
2022-08-07T03:05:38.069Z,0.90
2022-08-07T03:08:10.215Z,1.05
2022-08-07T03:10:46.713Z,0.90
2022-08-07T03:13:19.682Z,0.80
2022-08-07T03:15:56.406Z,0.90
2022-08-07T03:18:35.036Z,1.00
2022-08-07T03:21:08.742Z,1.05
2022-08-07T03:24:17.882Z,0.95
2022-08-07T03:26:33.098Z,1.00
2022-08-07T03:29:11.009Z,1.20
2022-08-07T03:31:43.288Z,0.98
2022-08-07T03:34:18.789Z,0.90
2022-08-07T03:36:53.264Z,1.00
2022-08-07T03:39:46.561Z,0.80
2022-08-07T03:42:11.950Z,1.00
2022-08-07T03:44:39.907Z,0.90
2022-08-07T03:47:13.165Z,1.02
2022-08-07T03:49:48.042Z,1.05
2022-08-07T03:52:29.657Z,1.00
2022-08-07T03:55:07.034Z,1.00
2022-08-07T03:58:35.293Z,1.00
2022-08-07T04:00:33.805Z,1.00
2022-08-07T04:03:04.170Z,1.48
2022-08-07T04:05:40.769Z,1.00
2022-08-07T04:08:18.627Z,0.90
2022-08-07T04:10:54.199Z,1.20
2022-08-07T04:14:10.680Z,1.02
2022-08-07T04:16:31.007Z,1.20
2022-08-07T04:19:03.952Z,1.00
2022-08-07T04:21:38.894Z,1.00
2022-08-07T04:24:10.343Z,1.20
2022-08-07T04:26:59.614Z,1.20
2022-08-07T04:29:27.749Z,1.13
2022-08-07T04:32:10.113Z,0.90
2022-08-07T04:34:39.512Z,1.00
2022-08-07T04:37:08.047Z,1.10
2022-08-07T04:39:49.914Z,0.85
2022-08-07T04:42:17.278Z,1.10
2022-08-07T04:44:54.660Z,1.13
2022-08-07T04:47:58.868Z,1.00
2022-08-07T04:50:41.773Z,1.10
2022-08-07T04:53:40.163Z,1.00
2022-08-07T04:58:13.073Z,1.38
2022-08-07T05:00:12.245Z,0.80
2022-08-07T05:02:39.001Z,1.20
2022-08-07T05:05:54.009Z,1.10
2022-08-07T05:09:00.672Z,1.20
2022-08-07T05:11:57.057Z,1.20
2022-08-07T05:14:53.517Z,1.00
2022-08-07T05:17:51.898Z,1.30
2022-08-07T05:20:10.006Z,1.20
2022-08-07T05:25:11.770Z,1.50
2022-08-07T05:28:16.971Z,1.10
2022-08-07T05:35:45.483Z,1.10
2022-08-07T05:38:59.763Z,0.90
2022-08-07T05:41:02.549Z,1.05
2022-08-07T05:43:43.401Z,0.90
2022-08-07T05:46:29.539Z,0.80
2022-08-07T05:49:00.085Z,1.00
2022-08-07T05:51:33.291Z,0.90
2022-08-07T05:59:22.442Z,0.90
2022-08-07T06:01:57.802Z,1.10
2022-08-07T06:04:30.180Z,0.93
2022-08-07T06:07:03.935Z,1.08
2022-08-07T06:10:04.622Z,1.13
2022-08-07T06:12:21.085Z,1.10
2022-08-07T06:14:55.043Z,1.10
2022-08-07T06:17:30.541Z,1.10
2022-08-07T06:20:04.441Z,1.00
2022-08-07T06:22:40.079Z,1.02
2022-08-07T06:25:34.706Z,1.02
2022-08-07T06:28:05.578Z,1.10
2022-08-07T06:30:37.297Z,1.02
2022-08-07T06:33:16.798Z,1.35
2022-08-07T06:36:06.104Z,1.50
2022-08-07T06:38:33.189Z,1.60
2022-08-07T06:41:06.930Z,1.77
2022-08-07T06:43:39.549Z,1.52
2022-08-07T06:46:31.054Z,1.80
2022-08-07T06:49:00.497Z,1.90
2022-08-07T06:51:34.672Z,2.15
2022-08-07T06:55:29.150Z,2.55
2022-08-07T06:56:56.226Z,2.15
2022-08-07T07:00:16.985Z,2.60
2022-08-07T07:02:49.126Z,2.08
2022-08-07T07:05:12.956Z,2.30
2022-08-07T07:07:59.605Z,2.03
2022-08-07T07:10:31.406Z,2.58
2022-08-07T07:13:04.469Z,2.53
2022-08-07T07:15:37.800Z,2.15
2022-08-07T07:18:14.025Z,2.50
2022-08-07T07:20:50.189Z,2.70
2022-08-07T07:24:08.690Z,2.30
2022-08-07T07:26:34.513Z,2.40
2022-08-07T07:29:39.573Z,2.22
2022-08-07T07:31:48.473Z,2.17
2022-08-07T07:34:22.292Z,1.90
2022-08-07T07:37:05.626Z,2.30
2022-08-07T07:39:54.397Z,2.45
2022-08-07T07:42:25.921Z,2.08
2022-08-07T07:45:02.927Z,1.95
2022-08-07T07:47:51.663Z,2.20
2022-08-07T07:50:35.902Z,1.98
2022-08-07T07:53:20.447Z,1.90
2022-08-07T07:56:00.684Z,1.70
2022-08-07T07:58:40.593Z,2.70
2022-08-07T08:02:02.804Z,2.08
2022-08-07T08:04:06.039Z,2.10
2022-08-07T08:06:39.625Z,1.88
2022-08-07T08:09:08.478Z,2.10
2022-08-07T08:11:59.921Z,2.25
2022-08-07T08:14:26.457Z,2.03
2022-08-07T08:16:55.548Z,2.00
2022-08-07T08:20:15.955Z,1.77
2022-08-07T08:22:33.320Z,2.00
2022-08-07T08:25:27.070Z,1.85
2022-08-07T08:28:12.669Z,2.10
2022-08-07T08:30:51.528Z,1.70
2022-08-07T08:33:28.945Z,1.67
2022-08-07T08:36:01.615Z,1.55
2022-08-07T08:38:40.450Z,1.50
2022-08-07T08:41:23.003Z,1.90
2022-08-07T08:44:09.486Z,2.42
2022-08-07T08:46:59.629Z,1.65
2022-08-07T08:50:02.307Z,1.33
2022-08-07T08:52:30.479Z,1.40
2022-08-07T08:55:21.159Z,1.30
2022-08-07T08:58:28.553Z,1.52
2022-08-07T09:01:16.164Z,1.20
2022-08-07T09:04:08.897Z,1.48
2022-08-07T09:06:42.828Z,1.60
2022-08-07T09:09:21.007Z,1.83
2022-08-07T09:12:20.007Z,1.52
2022-08-07T09:16:24.121Z,1.60
2022-08-07T09:17:59.249Z,1.90
2022-08-07T09:20:58.124Z,1.85
2022-08-07T09:24:32.814Z,1.40
2022-08-07T09:26:47.909Z,1.20
2022-08-07T09:30:04.095Z,1.00
2022-08-07T09:32:46.384Z,0.70
2022-08-07T09:36:02.988Z,0.55
2022-08-07T09:38:50.241Z,0.88
2022-08-07T09:41:58.392Z,0.60
2022-08-07T09:47:51.295Z,0.90
2022-08-07T09:48:14.623Z,0.70
2022-08-07T09:51:05.353Z,0.90
2022-08-07T09:53:50.099Z,0.63
2022-08-07T09:57:00.145Z,0.60
2022-08-07T10:00:04.620Z,0.80
2022-08-07T10:04:05.602Z,0.75
2022-08-07T10:06:18.848Z,0.63
2022-08-07T10:09:10.130Z,0.60
2022-08-07T10:12:16.720Z,0.60
2022-08-07T10:15:22.600Z,0.70
2022-08-07T10:18:14.224Z,0.73
2022-08-07T10:21:20.109Z,0.77
2022-08-07T10:27:10.547Z,0.60
2022-08-07T10:29:55.906Z,0.70
2022-08-07T10:32:52.697Z,0.70
2022-08-07T10:35:56.533Z,0.70
2022-08-07T10:38:35.881Z,0.60
2022-08-07T10:41:47.226Z,0.90
2022-08-07T10:44:38.716Z,0.60
2022-08-07T10:47:18.743Z,0.60
2022-08-07T10:50:06.201Z,0.52
2022-08-07T10:52:40.074Z,0.70
2022-08-07T10:55:27.099Z,1.00
2022-08-07T10:58:32.025Z,0.60
2022-08-07T11:01:35.172Z,0.70
2022-08-07T11:04:31.890Z,0.60
2022-08-07T11:07:14.912Z,0.60
2022-08-07T11:10:08.553Z,0.60
2022-08-07T11:12:43.287Z,0.70
2022-08-07T11:15:17.881Z,0.70
2022-08-07T11:17:56.849Z,0.90
2022-08-07T11:20:51.649Z,0.50
2022-08-07T11:23:30.413Z,0.93
2022-08-07T11:26:33.934Z,0.60
2022-08-07T11:29:22.345Z,0.60
2022-08-07T11:34:37.142Z,0.85
2022-08-07T11:37:58.297Z,0.45
2022-08-07T11:40:50.182Z,0.50
2022-08-07T11:43:41.287Z,0.45
2022-08-07T11:46:28.934Z,0.50
2022-08-07T11:50:18.544Z,0.47
2022-08-07T11:53:37.343Z,0.50
2022-08-07T11:56:45.189Z,0.45
2022-08-07T12:00:10.533Z,0.50
2022-08-07T12:03:03.938Z,0.50
2022-08-07T12:05:49.548Z,0.50
2022-08-07T12:08:26.070Z,0.60
2022-08-07T12:11:20.184Z,0.40
2022-08-07T12:14:01.553Z,0.43
2022-08-07T12:19:21.268Z,0.60
2022-08-07T12:22:37.676Z,0.50
2022-08-07T12:26:03.054Z,0.80
2022-08-07T12:29:09.329Z,0.30
2022-08-07T12:32:01.646Z,0.60
2022-08-07T12:34:35.873Z,0.50
2022-08-07T12:37:08.679Z,0.40
2022-08-07T12:42:27.052Z,0.50
2022-08-07T12:44:57.958Z,0.52
2022-08-07T12:47:49.558Z,0.80
2022-08-07T12:50:33.819Z,0.40
2022-08-07T12:53:24.977Z,0.55
2022-08-07T12:56:20.466Z,0.60
2022-08-07T12:58:53.181Z,0.60
2022-08-07T13:01:32.548Z,0.63
2022-08-07T13:04:34.113Z,0.52
2022-08-07T13:08:14.414Z,0.60
2022-08-07T13:10:39.277Z,0.50
2022-08-07T13:13:46.753Z,0.60
2022-08-07T13:16:25.091Z,0.65
2022-08-07T13:19:18.199Z,0.50
2022-08-07T13:22:19.766Z,0.50
2022-08-07T13:25:00.415Z,0.52
2022-08-07T13:28:12.706Z,0.60
2022-08-07T13:30:39.847Z,0.65
2022-08-07T13:34:14.903Z,0.60
2022-08-07T13:36:05.408Z,0.52
2022-08-07T13:39:02.592Z,0.50
2022-08-07T13:41:42.624Z,0.50
2022-08-07T13:46:58.729Z,0.38
2022-08-07T13:50:35.816Z,0.60
2022-08-07T13:52:32.623Z,0.60
2022-08-07T13:55:10.812Z,0.57
2022-08-07T14:00:39.581Z,0.70
2022-08-07T14:03:29.329Z,0.40
2022-08-07T14:06:13.873Z,0.50
2022-08-07T14:08:46.718Z,1.33
2022-08-07T14:11:23.193Z,0.60
2022-08-07T14:14:01.752Z,0.70
2022-08-07T14:16:34.109Z,0.60
2022-08-07T14:19:11.183Z,0.50
2022-08-07T14:22:03.192Z,0.52
2022-08-07T14:24:41.498Z,0.38
2022-08-07T14:28:09.263Z,0.60
2022-08-07T14:30:11.030Z,0.70
2022-08-07T14:32:55.148Z,0.50
2022-08-07T14:35:45.232Z,0.50
2022-08-07T14:38:26.368Z,0.63
2022-08-07T14:41:02.141Z,0.60
2022-08-07T14:43:58.341Z,0.60
2022-08-07T14:46:30.506Z,0.50
2022-08-07T14:49:00.244Z,0.50
2022-08-07T14:54:42.030Z,0.52
2022-08-07T14:57:19.250Z,0.50
2022-08-07T15:00:05.541Z,0.65
2022-08-07T15:02:34.869Z,0.60
2022-08-07T15:05:03.348Z,0.60
2022-08-07T15:07:47.567Z,0.52
2022-08-07T15:10:29.855Z,0.50
2022-08-07T15:13:05.748Z,0.70
2022-08-07T15:15:40.669Z,0.50
2022-08-07T15:18:33.627Z,0.40
2022-08-07T15:21:44.126Z,0.40
2022-08-07T15:25:15.313Z,0.43
2022-08-07T15:27:03.663Z,0.60
2022-08-07T15:32:39.610Z,0.50
2022-08-07T15:35:12.702Z,0.68
2022-08-07T15:38:04.885Z,0.47
2022-08-07T15:40:34.609Z,0.55
2022-08-07T15:43:53.276Z,0.52
2022-08-07T15:46:32.400Z,0.90
2022-08-07T15:54:39.495Z,0.57
2022-08-07T15:57:40.142Z,0.40
2022-08-07T15:59:59.359Z,0.50
2022-08-07T16:02:35.499Z,0.55
2022-08-07T16:05:15.615Z,0.70
2022-08-07T16:08:31.006Z,0.60
2022-08-07T16:10:36.555Z,0.60
2022-08-07T16:13:58.707Z,0.70
2022-08-07T16:16:48.206Z,0.82
2022-08-07T16:19:42.781Z,0.50
2022-08-07T16:25:23.424Z,0.55
2022-08-07T16:30:06.767Z,0.60
2022-08-07T16:34:24.190Z,0.70
2022-08-07T16:38:04.365Z,0.60
2022-08-07T16:40:36.475Z,0.57
2022-08-07T16:44:06.372Z,0.60
2022-08-07T16:47:05.686Z,1.38
2022-08-07T16:50:28.294Z,0.98
2022-08-07T16:53:57.240Z,0.65
2022-08-07T16:56:25.928Z,0.90
2022-08-07T16:59:14.680Z,0.63
2022-08-07T17:04:50.921Z,0.77
2022-08-07T17:07:51.548Z,1.00
2022-08-07T17:10:32.655Z,0.80
2022-08-07T17:13:18.614Z,0.70
2022-08-07T17:16:05.596Z,1.02
2022-08-07T17:18:52.001Z,0.70
2022-08-07T17:21:24.539Z,0.60
2022-08-07T17:24:02.946Z,0.60
2022-08-07T17:26:49.745Z,0.60
2022-08-07T17:30:15.157Z,0.50
2022-08-07T17:32:35.542Z,0.70
2022-08-07T17:35:51.177Z,0.40
2022-08-07T17:38:33.283Z,0.77
2022-08-07T17:42:02.331Z,0.50
2022-08-07T17:44:15.564Z,0.60
2022-08-07T17:47:02.911Z,0.50
2022-08-07T17:49:51.923Z,0.55
2022-08-07T17:52:36.853Z,0.80
2022-08-07T17:55:13.868Z,0.70
2022-08-07T17:57:58.419Z,0.73
2022-08-07T18:00:34.632Z,0.70
2022-08-07T18:04:04.574Z,0.77
2022-08-07T18:06:37.272Z,0.95
2022-08-07T18:09:08.603Z,0.70
2022-08-07T18:12:08.289Z,0.57
2022-08-07T18:14:51.021Z,0.80
2022-08-07T18:18:45.173Z,1.30
2022-08-07T18:21:12.717Z,1.00
2022-08-07T18:23:43.136Z,0.90
2022-08-07T18:26:16.410Z,0.70
2022-08-07T18:30:05.801Z,0.60
2022-08-07T18:32:35.265Z,0.70
2022-08-07T18:35:30.338Z,1.60
2022-08-07T18:38:55.558Z,0.50
2022-08-07T18:41:56.427Z,0.80
2022-08-07T18:45:45.032Z,0.68
2022-08-07T18:47:45.187Z,0.70
2022-08-07T18:50:39.559Z,0.65
2022-08-07T18:53:36.604Z,1.20
2022-08-07T18:56:30.848Z,1.33
2022-08-07T18:59:46.917Z,1.17
2022-08-07T19:02:34.000Z,1.50
2022-08-07T19:05:15.631Z,0.52
2022-08-07T19:08:06.275Z,0.70
2022-08-07T19:10:51.258Z,0.80
2022-08-07T19:13:45.834Z,0.73
2022-08-07T19:17:06.548Z,0.85
2022-08-07T19:19:41.181Z,0.70
2022-08-07T19:22:34.217Z,0.70
2022-08-07T19:25:05.506Z,0.50
2022-08-07T19:28:57.148Z,0.75
2022-08-07T19:31:04.153Z,0.98
2022-08-07T19:33:15.999Z,0.93
2022-08-07T19:35:46.165Z,0.90
2022-08-07T19:38:17.665Z,1.00
2022-08-07T19:40:49.273Z,1.08
2022-08-07T19:43:43.990Z,1.15
2022-08-07T19:46:11.877Z,1.30
2022-08-07T19:48:53.993Z,1.50
2022-08-07T19:51:50.582Z,1.08
2022-08-07T19:54:34.268Z,1.05
2022-08-07T19:58:02.454Z,1.00
2022-08-07T19:59:52.296Z,1.00
2022-08-07T20:02:28.905Z,1.20
2022-08-07T20:04:57.141Z,0.82
2022-08-07T20:07:47.545Z,0.90
2022-08-07T20:10:37.289Z,0.98
2022-08-07T20:13:23.709Z,0.93
2022-08-07T20:15:55.297Z,1.02
2022-08-07T20:18:32.894Z,0.90
2022-08-07T20:21:03.531Z,1.58
2022-08-07T20:23:53.500Z,1.00
2022-08-07T20:26:32.748Z,1.00
2022-08-07T20:29:46.668Z,0.95
2022-08-07T20:32:03.117Z,1.25
2022-08-07T20:34:49.609Z,1.00
2022-08-07T20:37:23.693Z,1.20
2022-08-07T20:40:03.379Z,0.90
2022-08-07T20:42:32.306Z,0.83
2022-08-07T20:45:01.108Z,0.88
2022-08-07T20:47:56.291Z,1.10
2022-08-07T20:50:20.715Z,0.98
2022-08-07T20:52:51.879Z,0.98
2022-08-07T20:55:23.670Z,1.00
2022-08-07T21:00:53.894Z,1.45
2022-08-07T21:03:26.027Z,1.13
2022-08-07T21:06:22.361Z,1.15
2022-08-07T21:09:07.518Z,1.00
2022-08-07T21:11:50.965Z,1.42
2022-08-07T21:14:33.095Z,1.25
2022-08-07T21:18:03.509Z,1.00
2022-08-07T21:20:01.075Z,1.10
2022-08-07T21:22:39.053Z,0.80
2022-08-07T21:25:17.026Z,1.00
2022-08-07T21:28:13.431Z,0.93
2022-08-07T21:30:54.502Z,0.88
2022-08-07T21:33:38.218Z,0.80
2022-08-07T21:36:32.286Z,0.95
2022-08-07T21:39:45.916Z,0.88
2022-08-07T21:42:37.640Z,1.10
2022-08-07T21:46:03.572Z,0.77
2022-08-07T21:48:29.075Z,0.90
2022-08-07T21:51:25.103Z,0.90
2022-08-07T21:54:00.786Z,0.90
2022-08-07T21:56:39.767Z,1.02
2022-08-07T21:59:29.889Z,1.10
2022-08-07T22:02:10.786Z,1.10
2022-08-07T22:04:54.269Z,0.90
2022-08-07T22:07:31.690Z,0.77
2022-08-07T22:10:24.505Z,0.85
2022-08-07T22:12:56.915Z,0.75
2022-08-07T22:16:42.141Z,0.75
2022-08-07T22:18:21.857Z,0.98
2022-08-07T22:20:51.424Z,0.82
2022-08-07T22:23:40.250Z,0.80
2022-08-07T22:26:16.140Z,0.80
2022-08-07T22:28:59.282Z,0.90
2022-08-07T22:31:45.676Z,0.98
2022-08-07T22:34:28.943Z,0.98
2022-08-07T22:37:19.224Z,0.80
2022-08-07T22:39:56.249Z,0.70
2022-08-07T22:42:29.627Z,0.88
2022-08-07T22:45:03.662Z,0.70
2022-08-07T22:47:49.529Z,0.70
2022-08-07T22:50:44.009Z,0.90
2022-08-07T22:56:21.957Z,0.90
2022-08-07T22:59:10.145Z,0.80
2022-08-07T23:02:04.338Z,1.00
2022-08-07T23:04:57.774Z,0.93
2022-08-07T23:07:57.636Z,0.80
2022-08-07T23:10:37.429Z,0.82
2022-08-07T23:13:12.262Z,0.90
2022-08-07T23:16:06.515Z,0.95
2022-08-07T23:19:19.594Z,0.90
2022-08-07T23:22:21.824Z,1.00
2022-08-07T23:25:32.098Z,0.73
2022-08-07T23:28:21.549Z,1.08
2022-08-07T23:31:11.514Z,0.90
2022-08-07T23:34:21.243Z,1.00
2022-08-07T23:37:22.832Z,0.90
2022-08-07T23:40:04.840Z,0.98
2022-08-07T23:42:58.246Z,1.13
2022-08-07T23:46:02.657Z,0.73
2022-08-07T23:48:47.297Z,1.00
2022-08-07T23:53:05.446Z,0.90
2022-08-07T23:54:44.028Z,0.85
2022-08-07T23:57:34.889Z,1.02
